Time;durP1;ratioP1;P1;durP2;ratioP2;P2;SDS_P1;SDS_P2;PMS_P1;PMS_P2;Temp;Humidity;BMP_temperature;BMP_pressure;BME280_temperature;BME280_humidity;BME280_pressure;Samples;Min_cycle;Max_cycle;Signal;HPM_P1;HPM_P2
2021/08/16 00:00:15;;;;;;;;;7.33;6.00;;;;;;;;5165238;27;45201;-77
2021/08/16 00:02:42;;;;;;;;;7.67;6.00;;;;;;;;5165073;27;45526;-77
2021/08/16 00:05:07;;;;;;;;;6.67;6.67;;;;;;;;5165096;27;45356;-77
2021/08/16 00:07:32;;;;;;;;;8.00;8.00;;;;;;;;5165207;27;45336;-78
2021/08/16 00:09:58;;;;;;;;;6.67;6.67;;;;;;;;5165044;27;45505;-77
2021/08/16 00:12:23;;;;;;;;;6.67;6.33;;;;;;;;5165063;27;45346;-78
2021/08/16 00:14:48;;;;;;;;;7.67;5.67;;;;;;;;5164860;27;45399;-77
2021/08/16 00:17:14;;;;;;;;;7.67;6.67;;;;;;;;5164888;27;45346;-78
2021/08/16 00:19:39;;;;;;;;;3.33;2.33;;;;;;;;5164695;27;45340;-78
2021/08/16 00:22:05;;;;;;;;;7.33;6.00;;;;;;;;5164702;27;45458;-77
2021/08/16 00:24:30;;;;;;;;;9.33;8.33;;;;;;;;5164961;27;45433;-78
2021/08/16 00:26:56;;;;;;;;;7.00;7.00;;;;;;;;5164822;27;45304;-78
2021/08/16 00:29:21;;;;;;;;;8.33;6.67;;;;;;;;5164739;27;45233;-78
2021/08/16 00:31:47;;;;;;;;;4.67;4.67;;;;;;;;5145818;27;45385;-78
2021/08/16 00:34:12;;;;;;;;;6.00;5.67;;;;;;;;5164696;27;45337;-77
2021/08/16 00:36:38;;;;;;;;;7.67;4.67;;;;;;;;5164608;27;45254;-77
2021/08/16 00:39:03;;;;;;;;;4.00;4.00;;;;;;;;5164463;27;45350;-77
2021/08/16 00:41:29;;;;;;;;;6.00;5.00;;;;;;;;5164499;27;45328;-78
2021/08/16 00:43:54;;;;;;;;;6.33;6.33;;;;;;;;5163677;27;45179;-77
2021/08/16 00:46:19;;;;;;;;;7.33;5.00;;;;;;;;5164736;27;45118;-77
2021/08/16 00:48:45;;;;;;;;;6.00;6.00;;;;;;;;5164216;27;45264;-77
2021/08/16 00:51:10;;;;;;;;;7.33;6.00;;;;;;;;5163744;27;45368;-77
2021/08/16 00:53:36;;;;;;;;;5.00;5.00;;;;;;;;5164455;27;45330;-77
2021/08/16 00:56:02;;;;;;;;;6.00;4.33;;;;;;;;5164497;27;45233;-77
2021/08/16 00:58:27;;;;;;;;;10.00;6.67;;;;;;;;5164230;27;45299;-77
2021/08/16 01:00:58;;;;;;;;;8.00;6.00;;;;;;;;5164262;27;45913;-77
2021/08/16 01:03:24;;;;;;;;;5.00;5.00;;;;;;;;5164311;27;45274;-77
2021/08/16 01:05:50;;;;;;;;;7.33;7.33;;;;;;;;5164092;27;45683;-77
2021/08/16 01:08:15;;;;;;;;;6.33;4.00;;;;;;;;5163877;27;45321;-76
2021/08/16 01:10:40;;;;;;;;;3.33;3.33;;;;;;;;5164134;27;45247;-77
2021/08/16 01:13:06;;;;;;;;;4.67;4.33;;;;;;;;5164252;27;45303;-77
2021/08/16 01:15:33;;;;;;;;;3.00;3.00;;;;;;;;5164127;27;45171;-77
2021/08/16 01:17:58;;;;;;;;;5.00;3.67;;;;;;;;5163856;27;45341;-77
2021/08/16 01:20:24;;;;;;;;;3.67;3.67;;;;;;;;5163515;27;45982;-78
2021/08/16 01:22:49;;;;;;;;;3.67;3.33;;;;;;;;5163886;27;45386;-78
2021/08/16 01:25:15;;;;;;;;;3.67;3.67;;;;;;;;5164049;27;45339;-78
2021/08/16 01:27:41;;;;;;;;;3.00;2.00;;;;;;;;5163617;27;45454;-77
2021/08/16 01:30:10;;;;;;;;;3.67;3.67;;;;;;;;5163683;27;45385;-77
2021/08/16 01:32:36;;;;;;;;;4.67;3.00;;;;;;;;5163760;27;45304;-78
2021/08/16 01:35:02;;;;;;;;;3.00;3.00;;;;;;;;5163599;27;45284;-78
2021/08/16 01:37:27;;;;;;;;;3.00;3.00;;;;;;;;5163442;27;45292;-77
2021/08/16 01:39:52;;;;;;;;;3.67;2.67;;;;;;;;5163424;27;46175;-77
2021/08/16 01:42:18;;;;;;;;;2.33;2.33;;;;;;;;5163611;27;45292;-77
2021/08/16 01:44:44;;;;;;;;;3.67;3.67;;;;;;;;5163601;27;45336;-78
2021/08/16 01:47:09;;;;;;;;;4.00;4.00;;;;;;;;5163538;27;45368;-77
2021/08/16 01:49:34;;;;;;;;;2.67;2.67;;;;;;;;5163185;27;45322;-77
2021/08/16 01:52:00;;;;;;;;;5.00;2.33;;;;;;;;5163191;27;45316;-77
2021/08/16 01:54:25;;;;;;;;;5.00;5.00;;;;;;;;5163439;27;45250;-77
2021/08/16 01:56:50;;;;;;;;;5.67;5.67;;;;;;;;5163309;27;45316;-77
2021/08/16 01:59:16;;;;;;;;;5.00;4.00;;;;;;;;5163289;27;45326;-77
2021/08/16 02:01:41;;;;;;;;;5.00;5.00;;;;;;;;5163252;27;45264;-77
2021/08/16 02:04:06;;;;;;;;;1.67;1.67;;;;;;;;5163416;27;45462;-77
2021/08/16 02:06:32;;;;;;;;;4.00;3.00;;;;;;;;5162911;27;45235;-77
2021/08/16 02:08:57;;;;;;;;;2.00;2.00;;;;;;;;5144225;27;46322;-77
2021/08/16 02:11:26;;;;;;;;;1.00;1.00;;;;;;;;5163141;27;45338;-77
2021/08/16 02:13:51;;;;;;;;;3.00;3.00;;;;;;;;5163200;27;45484;-77
2021/08/16 02:16:16;;;;;;;;;1.67;1.67;;;;;;;;5163022;27;45271;-76
2021/08/16 02:18:42;;;;;;;;;3.00;1.33;;;;;;;;5162744;27;45437;-77
2021/08/16 02:21:07;;;;;;;;;0.67;0.67;;;;;;;;5162636;27;45280;-76
2021/08/16 02:23:33;;;;;;;;;1.33;1.33;;;;;;;;5163240;27;45299;-77
2021/08/16 02:25:58;;;;;;;;;2.00;2.00;;;;;;;;5162783;27;45545;-77
2021/08/16 02:28:23;;;;;;;;;1.00;1.00;;;;;;;;5162728;27;46052;-77
2021/08/16 02:30:49;;;;;;;;;4.00;2.67;;;;;;;;5162678;27;45376;-77
2021/08/16 02:33:15;;;;;;;;;1.00;0.33;;;;;;;;5163051;27;45282;-77
2021/08/16 02:35:41;;;;;;;;;0.67;0.67;;;;;;;;5162475;27;45406;-77
2021/08/16 02:38:06;;;;;;;;;2.67;2.67;;;;;;;;5162526;27;45323;-77
2021/08/16 02:40:32;;;;;;;;;0.00;0.00;;;;;;;;5162539;27;45264;-77
2021/08/16 02:42:57;;;;;;;;;2.00;2.00;;;;;;;;5162944;27;45319;-77
2021/08/16 02:45:22;;;;;;;;;0.67;0.33;;;;;;;;5162633;27;45454;-77
2021/08/16 02:47:48;;;;;;;;;3.00;3.00;;;;;;;;5162575;27;45299;-77
2021/08/16 02:50:13;;;;;;;;;1.00;1.00;;;;;;;;5162380;27;45377;-77
2021/08/16 02:52:39;;;;;;;;;1.00;1.00;;;;;;;;5162813;27;45251;-77
2021/08/16 02:55:04;;;;;;;;;2.00;2.00;;;;;;;;5162514;27;45563;-77
2021/08/16 02:57:30;;;;;;;;;2.33;2.33;;;;;;;;5162475;27;45440;-77
2021/08/16 02:59:56;;;;;;;;;1.33;1.33;;;;;;;;5162554;27;45302;-77
2021/08/16 03:02:21;;;;;;;;;1.67;1.33;;;;;;;;5162506;27;45464;-77
2021/08/16 03:04:47;;;;;;;;;1.67;1.67;;;;;;;;5162250;27;45541;-77
2021/08/16 03:07:12;;;;;;;;;3.33;1.67;;;;;;;;5165205;27;46076;-77
2021/08/16 03:09:37;;;;;;;;;0.33;0.33;;;;;;;;5166170;27;45290;-77
2021/08/16 03:12:03;;;;;;;;;4.00;4.00;;;;;;;;5166282;27;45239;-77
2021/08/16 03:14:28;;;;;;;;;2.00;2.00;;;;;;;;5165902;27;45497;-77
2021/08/16 03:16:54;;;;;;;;;2.67;1.67;;;;;;;;5165873;27;45916;-77
2021/08/16 03:19:19;;;;;;;;;2.00;2.00;;;;;;;;5165811;27;45290;-77
2021/08/16 03:21:44;;;;;;;;;2.00;2.00;;;;;;;;5165839;27;45357;-77
2021/08/16 03:24:10;;;;;;;;;2.00;2.00;;;;;;;;5165744;27;45328;-77
2021/08/16 03:26:35;;;;;;;;;2.00;2.00;;;;;;;;5165626;27;46165;-77
2021/08/16 03:29:01;;;;;;;;;2.00;2.00;;;;;;;;5165797;27;45303;-77
2021/08/16 03:31:26;;;;;;;;;4.00;4.00;;;;;;;;5165640;27;45394;-77
2021/08/16 03:33:53;;;;;;;;;3.00;3.00;;;;;;;;5165690;27;45377;-77
2021/08/16 03:36:18;;;;;;;;;2.33;2.33;;;;;;;;5165231;27;45331;-77
2021/08/16 03:38:43;;;;;;;;;3.67;3.00;;;;;;;;5165570;27;45312;-77
2021/08/16 03:41:09;;;;;;;;;4.67;2.00;;;;;;;;5165465;27;45285;-76
2021/08/16 03:43:34;;;;;;;;;2.00;2.00;;;;;;;;5165502;27;45273;-77
2021/08/16 03:45:59;;;;;;;;;5.00;4.33;;;;;;;;5165382;27;45258;-77
2021/08/16 03:48:25;;;;;;;;;2.33;2.00;;;;;;;;5165570;27;45263;-77
2021/08/16 03:50:50;;;;;;;;;6.00;4.00;;;;;;;;5165438;27;45304;-77
2021/08/16 03:53:16;;;;;;;;;5.67;5.00;;;;;;;;5165196;27;45219;-76
2021/08/16 03:55:41;;;;;;;;;3.67;3.33;;;;;;;;5165216;27;45463;-77
2021/08/16 03:58:06;;;;;;;;;3.00;3.00;;;;;;;;5165282;27;45340;-77
2021/08/16 04:00:32;;;;;;;;;2.67;2.67;;;;;;;;5165451;27;45215;-77
2021/08/16 04:02:57;;;;;;;;;3.00;3.00;;;;;;;;5165261;27;45331;-77
2021/08/16 04:05:23;;;;;;;;;4.33;4.33;;;;;;;;5164960;27;45983;-77
2021/08/16 04:07:49;;;;;;;;;4.00;4.00;;;;;;;;5165062;27;45364;-77
2021/08/16 04:10:15;;;;;;;;;4.67;4.67;;;;;;;;5165183;27;45403;-77
2021/08/16 04:12:40;;;;;;;;;4.67;4.33;;;;;;;;5165052;27;45305;-77
2021/08/16 04:15:10;;;;;;;;;5.67;4.00;;;;;;;;5164942;27;46307;-77
2021/08/16 04:17:35;;;;;;;;;5.33;5.33;;;;;;;;5163540;27;45282;-77
2021/08/16 04:20:00;;;;;;;;;6.00;4.00;;;;;;;;5164987;27;45566;-77
2021/08/16 04:22:25;;;;;;;;;6.33;5.33;;;;;;;;5164741;27;45713;-77
2021/08/16 04:24:52;;;;;;;;;7.33;6.00;;;;;;;;5164834;27;45299;-77
2021/08/16 04:27:18;;;;;;;;;5.67;5.67;;;;;;;;5164727;27;45380;-78
2021/08/16 04:29:43;;;;;;;;;4.00;4.00;;;;;;;;5164763;27;45302;-77
2021/08/16 04:32:08;;;;;;;;;7.33;6.00;;;;;;;;5164786;27;45235;-77
2021/08/16 04:34:34;;;;;;;;;5.00;4.67;;;;;;;;5164399;27;45363;-77
2021/08/16 04:36:59;;;;;;;;;5.00;3.67;;;;;;;;5164733;27;45316;-77
2021/08/16 04:39:24;;;;;;;;;4.33;4.33;;;;;;;;5164754;27;45380;-77
2021/08/16 04:41:50;;;;;;;;;5.67;5.00;;;;;;;;5164602;27;45247;-77
2021/08/16 04:44:15;;;;;;;;;2.33;2.33;;;;;;;;5145648;27;47177;-77
2021/08/16 04:46:41;;;;;;;;;9.00;6.00;;;;;;;;5164568;27;45306;-77
2021/08/16 04:49:06;;;;;;;;;5.33;4.00;;;;;;;;5164664;27;45276;-77
2021/08/16 04:51:32;;;;;;;;;6.67;4.67;;;;;;;;5164106;27;45293;-77
2021/08/16 04:53:57;;;;;;;;;3.00;3.00;;;;;;;;5164251;27;45315;-77
2021/08/16 04:56:22;;;;;;;;;6.00;6.00;;;;;;;;5164295;27;45234;-77
2021/08/16 04:58:47;;;;;;;;;4.00;4.00;;;;;;;;5164348;27;45482;-77
2021/08/16 05:01:13;;;;;;;;;4.00;3.67;;;;;;;;5164328;27;45566;-76
2021/08/16 05:03:38;;;;;;;;;4.00;3.00;;;;;;;;5164252;27;46204;-76
2021/08/16 05:06:07;;;;;;;;;6.67;5.00;;;;;;;;5163982;27;45232;-78
2021/08/16 05:08:36;;;;;;;;;5.33;4.67;;;;;;;;5164393;27;45235;-76
2021/08/16 05:11:04;;;;;;;;;7.33;5.33;;;;;;;;5163992;27;45518;-77
2021/08/16 05:13:30;;;;;;;;;3.67;3.00;;;;;;;;5163950;27;45259;-76
2021/08/16 05:15:55;;;;;;;;;6.33;4.00;;;;;;;;5164016;27;45205;-77
2021/08/16 05:18:21;;;;;;;;;5.00;4.33;;;;;;;;5163733;27;45238;-76
2021/08/16 05:20:46;;;;;;;;;5.33;3.33;;;;;;;;5163670;27;45486;-77
2021/08/16 05:23:11;;;;;;;;;4.33;4.33;;;;;;;;5163657;27;46092;-76
2021/08/16 05:25:37;;;;;;;;;5.33;3.33;;;;;;;;5163894;27;45205;-76
2021/08/16 05:28:02;;;;;;;;;4.33;4.33;;;;;;;;5163514;27;45410;-77
2021/08/16 05:30:27;;;;;;;;;5.00;5.00;;;;;;;;5163549;27;45558;-77
2021/08/16 05:32:53;;;;;;;;;4.33;2.33;;;;;;;;5163722;27;46003;-77
2021/08/16 05:35:18;;;;;;;;;4.33;3.33;;;;;;;;5163465;27;45386;-77
2021/08/16 05:37:43;;;;;;;;;3.00;3.00;;;;;;;;5163863;27;45206;-76
2021/08/16 05:40:09;;;;;;;;;2.67;2.67;;;;;;;;5163341;27;45362;-76
2021/08/16 05:42:34;;;;;;;;;1.67;1.67;;;;;;;;5163590;27;45322;-76
2021/08/16 05:45:02;;;;;;;;;2.67;2.67;;;;;;;;5163643;27;45316;-76
2021/08/16 05:47:27;;;;;;;;;3.33;3.33;;;;;;;;5163724;27;45347;-77
2021/08/16 05:49:53;;;;;;;;;3.00;3.00;;;;;;;;5163287;27;45726;-77
2021/08/16 05:52:19;;;;;;;;;3.33;3.00;;;;;;;;5163323;27;46162;-76
2021/08/16 05:54:44;;;;;;;;;3.00;3.00;;;;;;;;5162822;27;45289;-76
2021/08/16 05:57:09;;;;;;;;;2.67;1.67;;;;;;;;5150296;27;45335;-77
2021/08/16 05:59:35;;;;;;;;;1.67;1.67;;;;;;;;5121385;27;45342;-76
2021/08/16 06:02:00;;;;;;;;;2.00;2.00;;;;;;;;5121442;27;45928;-78
2021/08/16 06:04:25;;;;;;;;;3.67;3.00;;;;;;;;5121412;27;45252;-77
2021/08/16 06:06:51;;;;;;;;;2.33;2.33;;;;;;;;5121295;27;45354;-76
2021/08/16 06:09:16;;;;;;;;;2.33;2.00;;;;;;;;5121329;27;45397;-77
2021/08/16 06:11:41;;;;;;;;;2.67;2.00;;;;;;;;5121432;27;45267;-76
2021/08/16 06:14:06;;;;;;;;;4.67;3.00;;;;;;;;5123519;27;45343;-76
2021/08/16 06:16:32;;;;;;;;;2.00;2.00;;;;;;;;5131211;27;45308;-76
2021/08/16 06:18:57;;;;;;;;;3.00;2.33;;;;;;;;5124071;27;45584;-76
2021/08/16 06:21:22;;;;;;;;;2.00;2.00;;;;;;;;5160951;27;45331;-77
2021/08/16 06:23:48;;;;;;;;;3.67;2.00;;;;;;;;5161233;27;45215;-77
2021/08/16 06:26:14;;;;;;;;;1.67;1.67;;;;;;;;5161436;27;45503;-76
2021/08/16 06:28:39;;;;;;;;;1.00;1.00;;;;;;;;5160533;27;45952;-76
2021/08/16 06:31:04;;;;;;;;;2.67;2.00;;;;;;;;5160966;27;45368;-75
2021/08/16 06:33:31;;;;;;;;;3.67;2.67;;;;;;;;5161207;27;45333;-75
2021/08/16 06:35:56;;;;;;;;;1.67;1.67;;;;;;;;5160964;27;45453;-75
2021/08/16 06:38:26;;;;;;;;;3.00;2.67;;;;;;;;5161155;27;45379;-77
2021/08/16 06:40:55;;;;;;;;;2.00;2.00;;;;;;;;5157227;27;46381;-78
2021/08/16 06:43:21;;;;;;;;;2.00;2.00;;;;;;;;5161768;27;45443;-77
2021/08/16 06:45:46;;;;;;;;;4.33;3.33;;;;;;;;5162768;27;45359;-78
2021/08/16 06:48:12;;;;;;;;;3.00;3.00;;;;;;;;5162375;27;45454;-78
2021/08/16 06:50:38;;;;;;;;;3.00;3.00;;;;;;;;5162127;27;45336;-79
2021/08/16 06:53:04;;;;;;;;;3.67;2.00;;;;;;;;5162488;27;45280;-77
2021/08/16 06:55:29;;;;;;;;;4.67;2.33;;;;;;;;5162623;27;45206;-79
2021/08/16 06:57:54;;;;;;;;;2.67;2.67;;;;;;;;5143052;27;45259;-78
2021/08/16 07:00:20;;;;;;;;;3.33;2.67;;;;;;;;5161879;27;45294;-80
2021/08/16 07:02:45;;;;;;;;;2.00;2.00;;;;;;;;5162968;27;45148;-78
2021/08/16 07:05:10;;;;;;;;;2.00;2.00;;;;;;;;5162479;27;45207;-79
2021/08/16 07:07:36;;;;;;;;;3.00;1.00;;;;;;;;5162353;27;45202;-78
2021/08/16 07:10:02;;;;;;;;;0.67;0.67;;;;;;;;5162454;27;45199;-78
2021/08/16 07:12:27;;;;;;;;;3.00;3.00;;;;;;;;5162429;27;45309;-80
2021/08/16 07:14:54;;;;;;;;;2.00;2.00;;;;;;;;5162281;27;45351;-80
2021/08/16 07:17:19;;;;;;;;;3.00;2.00;;;;;;;;5161838;27;45444;-80
2021/08/16 07:19:45;;;;;;;;;2.00;2.00;;;;;;;;5161056;27;45988;-78
2021/08/16 07:22:10;;;;;;;;;2.67;2.67;;;;;;;;5161843;27;45525;-78
2021/08/16 07:24:35;;;;;;;;;1.00;1.00;;;;;;;;5162500;27;45291;-78
2021/08/16 07:27:01;;;;;;;;;4.33;3.00;;;;;;;;5161900;27;45345;-76
2021/08/16 07:29:28;;;;;;;;;0.00;0.00;;;;;;;;5162030;27;45474;-78
2021/08/16 07:31:54;;;;;;;;;2.00;2.00;;;;;;;;5161912;27;45261;-77
2021/08/16 07:34:19;;;;;;;;;1.00;1.00;;;;;;;;5161681;27;45335;-77
2021/08/16 07:36:45;;;;;;;;;2.00;1.00;;;;;;;;5161723;27;45488;-79
2021/08/16 07:39:11;;;;;;;;;1.33;0.33;;;;;;;;5161669;27;45329;-78
2021/08/16 07:41:36;;;;;;;;;2.00;2.00;;;;;;;;5161911;27;45199;-78
2021/08/16 07:44:02;;;;;;;;;2.33;1.00;;;;;;;;5162074;27;45335;-78
2021/08/16 07:46:27;;;;;;;;;2.00;2.00;;;;;;;;5161888;27;45693;-79
2021/08/16 07:48:52;;;;;;;;;3.00;2.50;;;;;;;;5161904;27;46176;-77
2021/08/16 07:51:18;;;;;;;;;1.00;1.00;;;;;;;;5161795;27;45226;-77
2021/08/16 07:53:43;;;;;;;;;1.67;1.67;;;;;;;;5165694;27;45250;-78
2021/08/16 07:56:09;;;;;;;;;2.00;2.00;;;;;;;;5165419;27;45151;-77
2021/08/16 07:58:34;;;;;;;;;1.33;1.00;;;;;;;;5165343;27;45821;-77
2021/08/16 08:00:59;;;;;;;;;1.00;1.00;;;;;;;;5165398;27;45316;-75
2021/08/16 08:03:25;;;;;;;;;2.00;2.00;;;;;;;;5165485;27;45235;-76
2021/08/16 08:05:51;;;;;;;;;3.00;3.00;;;;;;;;5165026;27;45261;-81
2021/08/16 08:08:16;;;;;;;;;3.00;3.00;;;;;;;;5164731;27;45329;-75
2021/08/16 08:10:41;;;;;;;;;1.00;1.00;;;;;;;;5165065;27;45292;-81
2021/08/16 08:13:07;;;;;;;;;1.67;1.67;;;;;;;;5161530;27;45397;-80
2021/08/16 08:15:32;;;;;;;;;1.00;1.00;;;;;;;;5164101;27;45418;-78
2021/08/16 08:17:58;;;;;;;;;1.00;0.67;;;;;;;;5142176;27;45369;-78
2021/08/16 08:20:23;;;;;;;;;3.00;0.00;;;;;;;;5163861;27;45367;-77
2021/08/16 08:22:49;;;;;;;;;2.00;2.00;;;;;;;;5157230;27;45555;-76
2021/08/16 08:25:14;;;;;;;;;1.33;1.00;;;;;;;;5164122;27;45443;-77
2021/08/16 08:27:39;;;;;;;;;1.00;1.00;;;;;;;;5163307;27;46209;-77
2021/08/16 08:30:06;;;;;;;;;2.33;2.33;;;;;;;;5163442;27;45219;-77
2021/08/16 08:32:31;;;;;;;;;2.00;2.00;;;;;;;;5164550;27;45332;-77
2021/08/16 08:34:56;;;;;;;;;0.67;0.67;;;;;;;;5163911;27;45212;-76
2021/08/16 08:37:22;;;;;;;;;1.33;1.33;;;;;;;;5162276;27;46159;-78
2021/08/16 08:39:47;;;;;;;;;1.33;1.33;;;;;;;;5142702;27;45559;-78
2021/08/16 08:42:13;;;;;;;;;3.33;2.67;;;;;;;;5162823;27;45303;-79
2021/08/16 08:44:40;;;;;;;;;1.33;1.33;;;;;;;;5163301;27;45316;-78
2021/08/16 08:47:06;;;;;;;;;2.00;2.00;;;;;;;;5137517;27;45494;-80
2021/08/16 08:49:32;;;;;;;;;2.33;2.33;;;;;;;;5162991;27;45683;-77
2021/08/16 08:51:58;;;;;;;;;2.33;2.33;;;;;;;;5162951;27;45407;-78
2021/08/16 08:54:23;;;;;;;;;2.00;2.00;;;;;;;;5144766;27;45304;-83
2021/08/16 08:56:49;;;;;;;;;1.00;1.00;;;;;;;;5162168;27;45822;-79
2021/08/16 08:59:14;;;;;;;;;1.00;1.00;;;;;;;;5164086;27;45254;-78
2021/08/16 09:01:51;;;;;;;;;1.00;0.00;;;;;;;;5151755;27;45978;-78
2021/08/16 09:04:19;;;;;;;;;3.67;2.00;;;;;;;;5160486;27;45470;-78
2021/08/16 09:07:03;;;;;;;;;1.00;1.00;;;;;;;;5144889;27;47483;-80
2021/08/16 09:09:29;;;;;;;;;1.00;0.00;;;;;;;;5145361;27;45602;-80
2021/08/16 09:11:54;;;;;;;;;1.67;1.00;;;;;;;;5165457;27;45484;-81
2021/08/16 09:14:20;;;;;;;;;2.67;1.67;;;;;;;;5163801;27;45380;-84
2021/08/16 09:16:46;;;;;;;;;1.00;1.00;;;;;;;;5164380;27;45407;-79
2021/08/16 09:22:36;;;;;;;;;2.00;2.00;;;;;;;;5153391;27;45543;-80
2021/08/16 09:25:09;;;;;;;;;3.00;2.33;;;;;;;;5144400;27;46714;-81
2021/08/16 09:28:06;;;;;;;;;2.33;2.33;;;;;;;;5144157;27;45528;-84
2021/08/16 09:30:34;;;;;;;;;3.00;3.00;;;;;;;;5140625;27;45465;-88
2021/08/16 09:33:16;;;;;;;;;3.00;3.00;;;;;;;;5141051;27;45271;-84
2021/08/16 09:36:00;;;;;;;;;3.00;3.00;;;;;;;;5167308;27;45258;-82
2021/08/16 09:38:32;;;;;;;;;5.00;4.67;;;;;;;;5165198;27;45829;-85
2021/08/16 09:41:26;;;;;;;;;3.00;2.00;;;;;;;;5147694;27;45299;-84
2021/08/16 09:44:14;;;;;;;;;2.00;2.00;;;;;;;;5041285;28;45378;-79
2021/08/16 09:47:18;;;;;;;;;4.00;4.00;;;;;;;;5145327;27;46226;-84
2021/08/16 09:50:03;;;;;;;;;1.33;1.33;;;;;;;;5162280;27;45295;-82
2021/08/16 09:53:16;;;;;;;;;;;;;;;;;;;;;
2021/08/16 09:55:43;;;;;;;;;2.33;2.33;;;;;;;;5136055;27;67080;-79
2021/08/16 09:58:12;;;;;;;;;2.67;2.67;;;;;;;;5164203;27;45446;-79
2021/08/16 10:01:11;;;;;;;;;2.67;2.67;;;;;;;;5147472;27;48386;-85
2021/08/16 10:04:05;;;;;;;;;2.33;2.00;;;;;;;;5139816;27;45255;-81
2021/08/16 10:06:30;;;;;;;;;2.00;2.00;;;;;;;;5037011;28;45554;-82
2021/08/16 10:08:56;;;;;;;;;3.00;3.00;;;;;;;;5139913;27;45140;-79
2021/08/16 10:11:22;;;;;;;;;2.33;1.33;;;;;;;;5144038;27;45680;-78
2021/08/16 10:13:51;;;;;;;;;2.00;2.00;;;;;;;;5142941;27;45344;-78
2021/08/16 10:16:20;;;;;;;;;2.67;2.33;;;;;;;;5140409;27;45309;-79
2021/08/16 10:18:51;;;;;;;;;2.67;2.67;;;;;;;;5142619;27;45502;-80
2021/08/16 10:21:17;;;;;;;;;1.67;1.33;;;;;;;;5120971;27;45348;-79
2021/08/16 10:23:47;;;;;;;;;2.00;2.00;;;;;;;;5122263;27;45402;-81
2021/08/16 10:26:22;;;;;;;;;1.00;1.00;;;;;;;;5121654;27;45343;-81
2021/08/16 10:28:53;;;;;;;;;2.33;2.33;;;;;;;;5121208;27;45547;-79
2021/08/16 10:31:24;;;;;;;;;2.33;2.33;;;;;;;;5156945;27;45326;-82
2021/08/16 10:33:50;;;;;;;;;0.33;0.33;;;;;;;;5164758;27;45367;-81
2021/08/16 10:36:19;;;;;;;;;1.00;1.00;;;;;;;;5164177;27;45328;-81
2021/08/16 10:38:49;;;;;;;;;4.67;3.67;;;;;;;;5146666;27;45219;-80
2021/08/16 10:41:42;;;;;;;;;2.00;2.00;;;;;;;;5143526;27;45584;-81
2021/08/16 10:44:12;;;;;;;;;3.33;3.33;;;;;;;;5142579;27;45292;-80
2021/08/16 10:46:37;;;;;;;;;5.00;5.00;;;;;;;;5144141;27;45380;-81
2021/08/16 10:49:04;;;;;;;;;4.00;4.00;;;;;;;;5144308;27;45307;-81
2021/08/16 10:51:42;;;;;;;;;4.00;4.00;;;;;;;;5141794;27;45249;-81
2021/08/16 10:54:07;;;;;;;;;3.33;3.33;;;;;;;;5142705;27;46387;-78
2021/08/16 10:56:33;;;;;;;;;0.33;0.33;;;;;;;;5142436;27;45531;-79
2021/08/16 10:58:59;;;;;;;;;2.33;2.00;;;;;;;;5142294;27;45543;-79
2021/08/16 11:01:35;;;;;;;;;2.00;2.00;;;;;;;;5142911;27;45376;-80
2021/08/16 11:04:02;;;;;;;;;1.67;1.67;;;;;;;;5141200;27;45534;-80
2021/08/16 11:06:27;;;;;;;;;1.00;1.00;;;;;;;;5121974;27;45468;-81
2021/08/16 11:09:00;;;;;;;;;1.00;1.00;;;;;;;;5114209;27;46727;-80
2021/08/16 11:11:26;;;;;;;;;1.00;1.00;;;;;;;;5130144;27;45509;-82
2021/08/16 11:14:11;;;;;;;;;2.67;2.67;;;;;;;;5110909;27;45374;-82
2021/08/16 11:16:49;;;;;;;;;3.00;3.00;;;;;;;;5129857;27;45483;-83
2021/08/16 11:19:15;;;;;;;;;2.67;2.67;;;;;;;;5134601;27;45609;-80
2021/08/16 11:21:40;;;;;;;;;3.00;2.00;;;;;;;;5161224;27;45592;-82
2021/08/16 11:24:06;;;;;;;;;4.00;4.00;;;;;;;;5162331;27;45308;-83
2021/08/16 11:26:31;;;;;;;;;2.00;2.00;;;;;;;;5163322;27;45612;-85
2021/08/16 11:29:06;;;;;;;;;4.00;4.00;;;;;;;;5165107;27;45216;-87
2021/08/16 11:31:32;;;;;;;;;4.33;4.00;;;;;;;;5160682;27;46544;-85
2021/08/16 11:34:07;;;;;;;;;4.00;2.67;;;;;;;;5146240;27;45280;-81
2021/08/16 11:36:33;;;;;;;;;2.67;2.67;;;;;;;;5163655;27;45287;-85
2021/08/16 11:38:58;;;;;;;;;3.33;3.33;;;;;;;;5165737;27;45452;-77
2021/08/16 11:41:28;;;;;;;;;4.33;4.33;;;;;;;;5146497;27;45733;-86
2021/08/16 11:43:54;;;;;;;;;3.00;2.33;;;;;;;;5165434;27;45357;-82
2021/08/16 11:46:20;;;;;;;;;4.00;3.00;;;;;;;;5157606;27;45566;-77
2021/08/16 11:48:49;;;;;;;;;4.00;4.00;;;;;;;;5164178;27;45682;-81
2021/08/16 11:51:15;;;;;;;;;5.00;3.33;;;;;;;;5165849;27;45528;-81
2021/08/16 11:53:41;;;;;;;;;6.33;5.67;;;;;;;;5165773;27;45297;-80
2021/08/16 11:56:06;;;;;;;;;6.00;6.00;;;;;;;;5165971;27;45411;-77
2021/08/16 11:58:39;;;;;;;;;4.67;4.67;;;;;;;;5165465;27;45385;-79
2021/08/16 12:01:05;;;;;;;;;4.33;4.00;;;;;;;;5165519;27;46117;-79
2021/08/16 12:03:32;;;;;;;;;6.00;6.00;;;;;;;;5165555;27;45278;-80
2021/08/16 12:05:57;;;;;;;;;7.67;7.33;;;;;;;;5164001;27;45412;-77
2021/08/16 12:08:22;;;;;;;;;7.00;6.67;;;;;;;;5164860;27;45292;-78
2021/08/16 12:10:48;;;;;;;;;7.67;7.67;;;;;;;;5163757;27;46448;-77
2021/08/16 12:13:14;;;;;;;;;9.67;7.00;;;;;;;;5145879;27;45958;-82
2021/08/16 12:15:40;;;;;;;;;7.00;7.00;;;;;;;;5164304;27;45381;-82
2021/08/16 12:18:06;;;;;;;;;7.33;6.33;;;;;;;;5164634;27;45296;-83
2021/08/16 12:20:42;;;;;;;;;10.00;8.67;;;;;;;;5162353;27;45386;-81
2021/08/16 12:23:08;;;;;;;;;8.33;8.33;;;;;;;;5164733;27;45601;-81
2021/08/16 12:25:44;;;;;;;;;8.00;7.33;;;;;;;;5165959;27;45348;-78
2021/08/16 12:28:09;;;;;;;;;7.00;7.00;;;;;;;;5165450;27;45432;-77
2021/08/16 12:30:35;;;;;;;;;11.33;10.33;;;;;;;;5163964;27;45955;-78
2021/08/16 12:33:10;;;;;;;;;9.67;9.33;;;;;;;;5164826;27;45353;-79
2021/08/16 12:35:35;;;;;;;;;9.00;9.00;;;;;;;;5145652;27;45351;-79
2021/08/16 12:38:01;;;;;;;;;10.00;10.00;;;;;;;;5163547;27;45418;-79
2021/08/16 12:40:27;;;;;;;;;10.67;10.67;;;;;;;;5163828;27;45305;-79
2021/08/16 12:42:57;;;;;;;;;13.33;13.33;;;;;;;;5164560;27;45324;-77
2021/08/16 12:45:22;;;;;;;;;18.00;17.67;;;;;;;;5146085;27;45318;-78
2021/08/16 12:48:00;;;;;;;;;16.00;14.67;;;;;;;;5145372;27;46685;-81
2021/08/16 12:50:25;;;;;;;;;12.67;11.00;;;;;;;;5164546;27;46701;-79
2021/08/16 12:52:51;;;;;;;;;17.00;15.00;;;;;;;;5164735;27;45350;-80
2021/08/16 12:55:16;;;;;;;;;16.67;14.33;;;;;;;;5166074;27;45294;-79
2021/08/16 12:57:42;;;;;;;;;21.67;20.33;;;;;;;;5165568;27;45283;-80
2021/08/16 13:00:07;;;;;;;;;21.00;20.00;;;;;;;;5165509;27;45441;-81
2021/08/16 13:02:32;;;;;;;;;21.33;19.33;;;;;;;;5164543;27;45316;-81
2021/08/16 13:04:59;;;;;;;;;21.33;21.33;;;;;;;;5164994;27;45406;-81
2021/08/16 13:07:25;;;;;;;;;26.00;25.33;;;;;;;;5165299;27;45468;-80
2021/08/16 13:09:50;;;;;;;;;24.33;24.00;;;;;;;;5166438;27;45290;-78
2021/08/16 13:12:15;;;;;;;;;26.00;25.33;;;;;;;;5165606;27;45289;-80
2021/08/16 13:14:41;;;;;;;;;28.33;27.33;;;;;;;;5165784;27;45135;-79
2021/08/16 13:17:07;;;;;;;;;23.00;23.00;;;;;;;;5160926;27;45608;-79
2021/08/16 13:19:32;;;;;;;;;28.67;28.67;;;;;;;;5162364;27;46130;-81
2021/08/16 13:21:59;;;;;;;;;31.00;29.67;;;;;;;;5164564;27;45258;-79
2021/08/16 13:24:24;;;;;;;;;30.00;28.67;;;;;;;;5164157;27;45557;-81
2021/08/16 13:26:50;;;;;;;;;33.33;30.00;;;;;;;;5164542;27;45412;-81
2021/08/16 13:29:15;;;;;;;;;28.00;27.00;;;;;;;;5165154;27;45356;-78
2021/08/16 13:31:41;;;;;;;;;30.67;28.33;;;;;;;;5163457;27;45340;-78
2021/08/16 13:34:06;;;;;;;;;27.67;27.67;;;;;;;;5163966;27;45332;-78
2021/08/16 13:36:32;;;;;;;;;26.67;26.00;;;;;;;;5163519;27;45482;-78
2021/08/16 13:38:57;;;;;;;;;30.67;29.00;;;;;;;;5163892;27;46269;-79
2021/08/16 13:41:22;;;;;;;;;36.67;31.33;;;;;;;;5163309;27;45339;-80
2021/08/16 13:43:47;;;;;;;;;28.00;23.67;;;;;;;;5165317;27;45301;-82
2021/08/16 13:46:13;;;;;;;;;30.00;29.00;;;;;;;;5163842;27;45275;-77
2021/08/16 13:48:38;;;;;;;;;34.00;30.67;;;;;;;;5157282;27;46053;-75
2021/08/16 13:51:05;;;;;;;;;30.00;29.00;;;;;;;;5153403;27;45485;-75
2021/08/16 13:53:31;;;;;;;;;30.00;29.00;;;;;;;;5143971;27;45693;-74
2021/08/16 13:55:57;;;;;;;;;35.67;31.67;;;;;;;;5129283;27;45495;-75
2021/08/16 13:58:22;;;;;;;;;35.33;32.00;;;;;;;;5124472;27;46558;-76
2021/08/16 14:00:47;;;;;;;;;34.67;31.00;;;;;;;;5144526;27;45343;-79
2021/08/16 14:03:13;;;;;;;;;35.67;33.33;;;;;;;;5146302;27;45359;-76
2021/08/16 14:05:38;;;;;;;;;35.00;31.67;;;;;;;;5149157;27;45398;-78
2021/08/16 14:08:03;;;;;;;;;34.33;30.00;;;;;;;;5130867;27;45331;-78
2021/08/16 14:10:29;;;;;;;;;32.33;30.33;;;;;;;;5156627;27;45204;-76
2021/08/16 14:12:54;;;;;;;;;37.33;33.33;;;;;;;;5152844;27;45610;-80
2021/08/16 14:15:19;;;;;;;;;36.67;31.00;;;;;;;;5142534;27;45465;-75
2021/08/16 14:17:45;;;;;;;;;33.67;30.33;;;;;;;;5141628;27;46265;-77
2021/08/16 14:20:10;;;;;;;;;41.00;31.67;;;;;;;;5161494;27;45383;-81
2021/08/16 14:22:36;;;;;;;;;37.33;31.00;;;;;;;;5162508;27;45544;-79
2021/08/16 14:25:03;;;;;;;;;36.00;31.67;;;;;;;;5163958;27;45546;-79
2021/08/16 14:27:28;;;;;;;;;32.00;29.33;;;;;;;;5163628;27;45348;-76
2021/08/16 14:29:53;;;;;;;;;36.67;33.33;;;;;;;;5164955;27;45322;-76
2021/08/16 14:32:19;;;;;;;;;36.33;32.33;;;;;;;;5165348;27;45296;-82
2021/08/16 14:34:44;;;;;;;;;39.00;33.67;;;;;;;;5164763;27;45596;-79
2021/08/16 14:37:09;;;;;;;;;38.00;33.33;;;;;;;;5165187;27;45396;-80
2021/08/16 14:39:35;;;;;;;;;33.67;31.00;;;;;;;;5163237;27;45218;-78
2021/08/16 14:42:03;;;;;;;;;33.33;31.00;;;;;;;;5163558;27;45285;-79